Time;durP1;ratioP1;P1;durP2;ratioP2;P2;SDS_P1;SDS_P2;PMS_P1;PMS_P2;Temp;Humidity;BMP_temperature;BMP_pressure;BME280_temperature;BME280_humidity;BME280_pressure;Samples;Min_cycle;Max_cycle;Signal;HPM_P1;HPM_P2
2021/07/20 00:01:13;;;;;;;;;;;;;;;21.37;59.46;99988.72;5157516;27;870;-42
2021/07/20 00:03:38;;;;;;;;;;;;;;;21.56;58.95;99987.59;5161208;27;1106;-42
2021/07/20 00:06:04;;;;;;;;;;;;;;;21.52;58.76;99991.03;5162003;27;727;-43
2021/07/20 00:08:29;;;;;;;;;;;;;;;21.19;59.93;99990.66;5161965;27;767;-43
2021/07/20 00:10:56;;;;;;;;;;;;;;;21.11;59.73;99977.66;5161305;27;1913;-43
2021/07/20 00:13:21;;;;;;;;;;;;;;;20.71;58.47;99973.03;5161760;27;803;-42
2021/07/20 00:15:47;;;;;;;;;;;;;;;21.29;60.22;99975.72;5161573;27;767;-42
2021/07/20 00:18:13;;;;;;;;;;;;;;;21.74;58.63;99975.41;5161635;27;778;-43
2021/07/20 00:20:38;;;;;;;;;;;;;;;21.74;58.35;99972.63;5161221;27;810;-42
2021/07/20 00:23:04;;;;;;;;;;;;;;;21.77;58.04;99977.50;5161619;27;820;-43
2021/07/20 00:25:30;;;;;;;;;;;;;;;21.19;60.20;99980.41;5161571;27;823;-46
2021/07/20 00:27:56;;;;;;;;;;;;;;;21.03;60.70;99979.28;5161037;27;953;-46
2021/07/20 00:30:21;;;;;;;;;;;;;;;20.91;58.76;99981.84;5161323;27;783;-49
2021/07/20 00:32:46;;;;;;;;;;;;;;;21.22;60.12;99980.91;5161475;27;1913;-44
2021/07/20 00:35:12;;;;;;;;;;;;;;;21.56;59.52;99976.53;5161232;27;811;-43
2021/07/20 00:37:38;;;;;;;;;;;;;;;21.67;59.10;99986.13;5161682;27;804;-43
2021/07/20 00:40:05;;;;;;;;;;;;;;;21.48;59.48;99978.97;5142772;27;1262;-43
2021/07/20 00:42:32;;;;;;;;;;;;;;;21.30;60.20;99975.38;5142423;27;1108;-48
2021/07/20 00:44:57;;;;;;;;;;;;;;;21.15;59.96;99979.47;5160995;27;822;-43
2021/07/20 00:47:23;;;;;;;;;;;;;;;21.11;57.72;99981.25;5142490;27;1247;-43
2021/07/20 00:49:48;;;;;;;;;;;;;;;21.08;59.52;99983.81;5160617;27;839;-42
2021/07/20 00:52:14;;;;;;;;;;;;;;;21.26;59.76;99984.66;5146541;27;1913;-42
2021/07/20 00:54:39;;;;;;;;;;;;;;;21.51;58.81;99991.31;5140614;27;778;-42
2021/07/20 00:57:06;;;;;;;;;;;;;;;21.78;58.33;99981.88;5104106;27;1385;-44
2021/07/20 00:59:32;;;;;;;;;;;;;;;21.48;59.14;99980.94;5104004;27;1137;-47
2021/07/20 01:01:58;;;;;;;;;;;;;;;21.31;59.86;99978.97;5121959;27;1136;-42
2021/07/20 01:04:23;;;;;;;;;;;;;;;21.14;59.52;99994.41;5149305;27;1175;-43
2021/07/20 01:06:50;;;;;;;;;;;;;;;20.73;58.64;99983.75;5161046;27;787;-47
2021/07/20 01:09:15;;;;;;;;;;;;;;;20.94;61.15;99993.06;5142056;27;810;-44
2021/07/20 01:11:43;;;;;;;;;;;;;;;21.40;60.10;99988.06;5121351;27;1983;-54
2021/07/20 01:14:09;;;;;;;;;;;;;;;21.84;58.25;99988.06;5138830;27;763;-51
2021/07/20 01:16:38;;;;;;;;;;;;;;;21.88;57.81;99987.09;5104755;27;1196;-45
2021/07/20 01:19:05;;;;;;;;;;;;;;;21.19;60.24;99993.44;5104246;27;1331;-55
2021/07/20 01:21:33;;;;;;;;;;;;;;;21.12;60.34;99982.03;5139882;27;782;-54
2021/07/20 01:23:59;;;;;;;;;;;;;;;20.83;59.18;99987.06;5120581;27;1839;-43
2021/07/20 01:26:25;;;;;;;;;;;;;;;20.78;60.11;99989.94;5145648;27;985;-55
2021/07/20 01:28:51;;;;;;;;;;;;;;;21.23;60.62;99979.78;5141940;27;1246;-44
2021/07/20 01:31:18;;;;;;;;;;;;;;;21.56;59.22;99984.84;5124176;27;1914;-57
2021/07/20 01:33:46;;;;;;;;;;;;;;;21.61;58.76;99979.16;5124900;27;1263;-57
2021/07/20 01:36:13;;;;;;;;;;;;;;;21.47;59.04;99979.28;5141725;27;775;-56
2021/07/20 01:38:43;;;;;;;;;;;;;;;21.13;60.31;99983.69;5142131;27;837;-43
2021/07/20 01:41:11;;;;;;;;;;;;;;;21.26;59.74;99979.13;5159467;27;945;-55
2021/07/20 01:43:38;;;;;;;;;;;;;;;20.95;58.10;99982.84;5141936;27;1175;-55
2021/07/20 01:46:04;;;;;;;;;;;;;;;20.95;60.91;99991.13;5141602;27;1298;-51
2021/07/20 01:48:32;;;;;;;;;;;;;;;21.44;59.40;99989.03;5141486;27;883;-54
2021/07/20 01:51:01;;;;;;;;;;;;;;;21.81;58.02;99989.53;5140727;27;1980;-45
2021/07/20 01:53:26;;;;;;;;;;;;;;;21.48;57.85;99998.31;5141514;27;1226;-43
2021/07/20 01:55:53;;;;;;;;;;;;;;;21.65;57.86;99991.19;5124218;27;1165;-51
2021/07/20 01:58:19;;;;;;;;;;;;;;;21.32;58.90;99997.19;5159919;27;771;-42
2021/07/20 02:01:20;;;;;;;;;;;;;;;20.91;60.73;100007.53;5145733;27;1400;-57
2021/07/20 02:04:09;;;;;;;;;;;;;;;21.15;58.65;100007.09;5140781;27;1353;-42
2021/07/20 02:09:24;;;;;;;;;;;;;;;21.49;59.31;100008.25;5144577;27;775;-50
2021/07/20 02:11:53;;;;;;;;;;;;;;;21.59;58.83;100009.06;5140619;27;1913;-46
2021/07/20 02:14:42;;;;;;;;;;;;;;;21.88;57.80;100003.69;5158921;27;1081;-42
2021/07/20 02:17:40;;;;;;;;;;;;;;;21.06;60.55;100009.03;5112095;27;1273;-49
2021/07/20 02:20:08;;;;;;;;;;;;;;;21.04;59.67;100005.75;5140430;27;1224;-46
2021/07/20 02:23:00;;;;;;;;;;;;;;;20.46;60.32;100014.03;5156034;27;1328;-43
2021/07/20 02:25:27;;;;;;;;;;;;;;;21.10;61.15;100010.03;5140581;27;1256;-47
2021/07/20 02:27:56;;;;;;;;;;;;;;;21.58;59.16;100016.56;5140711;27;1000;-46
2021/07/20 02:30:38;;;;;;;;;;;;;;;21.72;58.45;100010.88;5143784;27;869;-42
2021/07/20 02:33:04;;;;;;;;;;;;;;;21.72;58.36;100024.69;5140619;27;1909;-43
2021/07/20 02:35:31;;;;;;;;;;;;;;;21.30;59.79;100021.59;5123450;27;1266;-43
2021/07/20 02:37:59;;;;;;;;;;;;;;;20.98;60.80;100018.13;5159107;27;787;-42
2021/07/20 02:40:28;;;;;;;;;;;;;;;20.72;58.82;100021.63;5139818;27;1128;-42
2021/07/20 02:42:54;;;;;;;;;;;;;;;21.22;59.67;100023.19;5158790;27;1136;-44
2021/07/20 02:45:20;;;;;;;;;;;;;;;21.50;59.52;100028.41;5139958;27;860;-44
2021/07/20 02:47:48;;;;;;;;;;;;;;;21.50;59.40;100025.66;5158590;27;824;-45
2021/07/20 02:50:17;;;;;;;;;;;;;;;21.93;58.03;100032.34;5123682;27;1075;-42
2021/07/20 02:52:47;;;;;;;;;;;;;;;21.45;58.67;100034.13;5140166;27;1914;-57
2021/07/20 02:55:18;;;;;;;;;;;;;;;21.16;59.18;100036.34;5123701;27;1294;-43
2021/07/20 02:57:46;;;;;;;;;;;;;;;21.02;59.09;100038.44;5158434;27;1008;-55
2021/07/20 03:00:12;;;;;;;;;;;;;;;20.68;59.65;100040.78;5139842;27;813;-54
2021/07/20 03:02:54;;;;;;;;;;;;;;;21.40;59.17;100029.56;5158688;27;798;-55
2021/07/20 03:05:20;;;;;;;;;;;;;;;21.64;58.49;100039.34;5122765;27;1209;-50
2021/07/20 03:07:49;;;;;;;;;;;;;;;21.75;58.05;100028.78;5123258;27;1275;-42
2021/07/20 03:10:15;;;;;;;;;;;;;;;21.49;58.60;100027.63;5139592;27;880;-49
2021/07/20 03:12:43;;;;;;;;;;;;;;;21.08;60.36;100026.09;5119166;27;1982;-49
2021/07/20 03:15:09;;;;;;;;;;;;;;;21.22;59.81;100019.63;5102580;27;1212;-43
2021/07/20 03:17:53;;;;;;;;;;;;;;;20.74;58.82;100016.59;5138197;27;747;-53
2021/07/20 03:20:19;;;;;;;;;;;;;;;21.20;60.60;100015.22;5101132;27;1586;-43
2021/07/20 03:22:45;;;;;;;;;;;;;;;21.34;59.72;100019.81;5137376;27;758;-51
2021/07/20 03:25:16;;;;;;;;;;;;;;;21.59;58.95;100017.38;5137493;27;797;-48
2021/07/20 03:27:43;;;;;;;;;;;;;;;21.59;58.84;100025.69;5136336;27;950;-51
2021/07/20 03:30:12;;;;;;;;;;;;;;;21.19;60.26;100021.88;5139382;27;1538;-49
2021/07/20 03:32:38;;;;;;;;;;;;;;;21.15;58.84;100022.88;5139456;27;1921;-43
2021/07/20 03:35:05;;;;;;;;;;;;;;;20.62;60.14;100035.69;5123341;27;1168;-44
2021/07/20 03:37:32;;;;;;;;;;;;;;;21.20;60.40;100034.56;5138935;27;819;-49
2021/07/20 03:39:58;;;;;;;;;;;;;;;21.61;59.00;100031.72;5139677;27;779;-41
2021/07/20 03:42:28;;;;;;;;;;;;;;;21.50;59.22;100029.25;5122419;27;965;-46
2021/07/20 03:44:53;;;;;;;;;;;;;;;21.25;60.18;100032.78;5157632;27;807;-56
2021/07/20 03:47:22;;;;;;;;;;;;;;;21.18;60.35;100027.75;5139756;27;1316;-50
2021/07/20 03:49:47;;;;;;;;;;;;;;;21.05;59.53;100035.03;5121984;27;1240;-51
2021/07/20 03:52:14;;;;;;;;;;;;;;;20.72;58.62;100034.63;5138944;27;1992;-46
2021/07/20 03:54:40;;;;;;;;;;;;;;;21.00;60.09;100032.44;5139335;27;1142;-58
2021/07/20 03:57:05;;;;;;;;;;;;;;;21.26;59.20;100031.66;5157522;27;989;-52
2021/07/20 03:59:38;;;;;;;;;;;;;;;21.45;58.82;100032.16;5139301;27;1236;-48
2021/07/20 04:02:28;;;;;;;;;;;;;;;21.40;59.37;100040.63;5130968;28;1097;-47
2021/07/20 04:05:01;;;;;;;;;;;;;;;21.10;60.47;100042.38;5136712;28;1213;-45
2021/07/20 04:07:32;;;;;;;;;;;;;;;21.11;60.47;100036.53;5119571;28;792;-43
2021/07/20 04:10:02;;;;;;;;;;;;;;;21.02;58.54;100038.44;5135899;28;1176;-48
2021/07/20 04:12:45;;;;;;;;;;;;;;;20.93;60.42;100041.19;5153446;27;1964;-52
2021/07/20 04:15:21;;;;;;;;;;;;;;;21.42;60.06;100038.34;5123766;27;1367;-54
2021/07/20 04:18:09;;;;;;;;;;;;;;;21.83;58.37;100041.78;5127076;27;1072;-52
2021/07/20 04:20:35;;;;;;;;;;;;;;;21.96;57.68;100042.75;5138531;27;1019;-49
2021/07/20 04:23:01;;;;;;;;;;;;;;;21.36;59.88;100039.63;5139203;27;1204;-44
2021/07/20 04:25:31;;;;;;;;;;;;;;;21.10;60.69;100043.19;5138637;27;1492;-46
2021/07/20 04:28:06;;;;;;;;;;;;;;;21.04;58.28;100041.69;5157647;27;953;-40
2021/07/20 04:30:34;;;;;;;;;;;;;;;21.38;60.38;100040.13;5157820;27;743;-42
2021/07/20 04:32:59;;;;;;;;;;;;;;;21.81;58.60;100033.81;5157331;27;1909;-45
2021/07/20 04:35:40;;;;;;;;;;;;;;;21.88;58.24;100036.91;5139083;27;1239;-40
2021/07/20 04:38:07;;;;;;;;;;;;;;;21.33;59.77;100041.09;5157856;27;862;-56
2021/07/20 04:40:34;;;;;;;;;;;;;;;21.30;60.21;100047.28;5121570;27;1165;-56
2021/07/20 04:43:00;;;;;;;;;;;;;;;21.06;58.55;100042.19;5138753;27;1120;-47
2021/07/20 04:45:26;;;;;;;;;;;;;;;21.12;59.63;100048.38;5172160;27;1299;-49
2021/07/20 04:48:04;;;;;;;;;;;;;;;21.70;59.45;100049.13;5137075;27;850;-53
2021/07/20 04:50:48;;;;;;;;;;;;;;;21.90;58.63;100046.84;5164563;27;971;-43
2021/07/20 04:53:15;;;;;;;;;;;;;;;21.83;58.75;100050.91;5125475;27;1917;-51
2021/07/20 04:55:44;;;;;;;;;;;;;;;21.42;59.86;100049.41;5142314;27;879;-46
2021/07/20 04:58:10;;;;;;;;;;;;;;;21.10;59.90;100059.78;5160240;27;847;-52
2021/07/20 05:00:36;;;;;;;;;;;;;;;20.87;58.44;100053.53;5160793;27;812;-51
2021/07/20 05:03:02;;;;;;;;;;;;;;;21.17;60.15;100046.28;5133941;27;1403;-46
2021/07/20 05:05:30;;;;;;;;;;;;;;;21.36;60.21;100053.47;5181603;27;1192;-44
2021/07/20 05:07:57;;;;;;;;;;;;;;;21.79;58.64;100047.16;5181411;27;821;-53
2021/07/20 05:10:25;;;;;;;;;;;;;;;21.67;58.88;100045.06;5181548;27;798;-47
2021/07/20 05:13:11;;;;;;;;;;;;;;;21.27;60.29;100036.88;5144424;27;1964;-55
2021/07/20 05:15:37;;;;;;;;;;;;;;;20.96;60.24;100037.00;5124605;27;1389;-49
2021/07/20 05:18:07;;;;;;;;;;;;;;;20.70;59.91;100040.47;5142257;27;1503;-52
2021/07/20 05:20:34;;;;;;;;;;;;;;;21.19;61.55;100038.47;5142522;27;813;-51
2021/07/20 05:23:04;;;;;;;;;;;;;;;21.73;59.53;100037.41;5125073;27;1115;-40
2021/07/20 05:25:30;;;;;;;;;;;;;;;21.87;58.84;100038.03;5124553;27;1116;-45
2021/07/20 05:27:58;;;;;;;;;;;;;;;21.37;60.62;100041.28;5159590;27;933;-46
2021/07/20 05:30:28;;;;;;;;;;;;;;;21.33;60.54;100052.16;5141830;27;1140;-41
2021/07/20 05:32:54;;;;;;;;;;;;;;;20.83;59.66;100058.88;5123858;27;1906;-45
2021/07/20 05:35:31;;;;;;;;;;;;;;;21.06;60.85;100052.47;5142996;27;823;-40
2021/07/20 05:37:57;;;;;;;;;;;;;;;21.71;60.59;100053.50;5160012;27;791;-41
2021/07/20 05:40:23;;;;;;;;;;;;;;;22.02;59.19;100045.03;5141402;27;1908;-50
2021/07/20 05:42:48;;;;;;;;;;;;;;;21.89;59.27;100051.53;5140315;27;938;-42
2021/07/20 05:45:26;;;;;;;;;;;;;;;21.46;60.75;100060.63;5143612;27;819;-41
2021/07/20 05:47:55;;;;;;;;;;;;;;;21.44;60.11;100055.44;5160268;27;783;-45
2021/07/20 05:50:22;;;;;;;;;;;;;;;21.08;58.76;100055.69;5141202;27;847;-45
2021/07/20 05:53:06;;;;;;;;;;;;;;;21.09;61.20;100058.13;5138799;27;1902;-49
2021/07/20 05:55:35;;;;;;;;;;;;;;;21.68;60.93;100065.22;5104186;27;1118;-44
2021/07/20 05:58:01;;;;;;;;;;;;;;;21.73;59.28;100054.00;5158361;27;1001;-40
2021/07/20 06:00:28;;;;;;;;;;;;;;;21.96;58.51;100056.59;5159145;27;806;-51
2021/07/20 06:02:59;;;;;;;;;;;;;;;21.41;60.68;100053.31;5140991;27;1240;-49
2021/07/20 06:05:27;;;;;;;;;;;;;;;21.36;60.99;100056.22;5140364;27;1165;-51
2021/07/20 06:07:53;;;;;;;;;;;;;;;21.12;59.38;100056.69;5141623;27;762;-49
2021/07/20 06:10:19;;;;;;;;;;;;;;;20.76;58.44;100061.31;5140811;27;827;-41
2021/07/20 06:12:46;;;;;;;;;;;;;;;21.20;61.17;100056.69;5140796;27;1990;-41
2021/07/20 06:15:12;;;;;;;;;;;;;;;21.60;61.45;100057.75;5159530;27;775;-48
2021/07/20 06:17:38;;;;;;;;;;;;;;;21.96;60.24;100059.34;5159648;27;783;-48
2021/07/20 06:20:03;;;;;;;;;;;;;;;21.99;59.79;100056.75;5141032;27;824;-45
2021/07/20 06:22:32;;;;;;;;;;;;;;;21.52;61.25;100054.66;5159737;27;839;-41
2021/07/20 06:25:01;;;;;;;;;;;;;;;21.44;61.08;100055.44;5124756;27;1803;-47
2021/07/20 06:27:26;;;;;;;;;;;;;;;21.00;58.60;100052.59;5139755;27;977;-50
2021/07/20 06:29:53;;;;;;;;;;;;;;;21.10;58.87;100048.72;5140414;27;853;-41
2021/07/20 06:32:19;;;;;;;;;;;;;;;21.43;61.32;100053.78;5140756;27;1975;-42
2021/07/20 06:34:44;;;;;;;;;;;;;;;21.78;61.38;100053.81;5140301;27;866;-41
2021/07/20 06:37:09;;;;;;;;;;;;;;;22.11;60.32;100058.84;5159348;27;674;-43
2021/07/20 06:39:35;;;;;;;;;;;;;;;21.85;60.69;100051.41;5140813;27;874;-40
2021/07/20 06:42:00;;;;;;;;;;;;;;;21.44;62.06;100057.38;5139883;27;1297;-51
2021/07/20 06:44:29;;;;;;;;;;;;;;;21.49;60.71;100055.28;5158932;27;865;-52
2021/07/20 06:46:55;;;;;;;;;;;;;;;20.97;58.72;100052.41;5158660;27;817;-52
2021/07/20 06:49:20;;;;;;;;;;;;;;;21.01;60.41;100051.47;5159198;27;792;-54
2021/07/20 06:51:46;;;;;;;;;;;;;;;21.15;58.46;100054.09;5158701;27;1917;-51
2021/07/20 06:54:12;;;;;;;;;;;;;;;20.96;57.01;100043.31;5158730;27;878;-52
2021/07/20 06:56:42;;;;;;;;;;;;;;;21.06;54.62;100047.72;5139653;27;1001;-41
2021/07/20 06:59:08;;;;;;;;;;;;;;;20.61;55.17;100047.91;5158833;27;830;-44
2021/07/20 07:01:33;;;;;;;;;;;;;;;20.68;53.83;100056.56;5139786;27;883;-49
2021/07/20 07:04:02;;;;;;;;;;;;;;;20.44;54.24;100048.59;5139853;27;1166;-42
2021/07/20 07:06:28;;;;;;;;;;;;;;;20.57;52.80;100046.91;5159075;27;783;-40
2021/07/20 07:08:55;;;;;;;;;;;;;;;20.44;53.55;100040.31;5140729;27;728;-51
2021/07/20 07:11:20;;;;;;;;;;;;;;;20.78;54.36;100042.44;5157300;27;1913;-46
2021/07/20 07:13:48;;;;;;;;;;;;;;;21.30;56.80;100030.69;5139454;27;1091;-51
2021/07/20 07:16:14;;;;;;;;;;;;;;;21.77;58.26;100032.84;5158298;27;806;-47
2021/07/20 07:18:42;;;;;;;;;;;;;;;22.08;59.36;100025.44;5140146;27;796;-48
2021/07/20 07:21:08;;;;;;;;;;;;;;;21.84;61.59;100030.41;5139949;27;854;-41
2021/07/20 07:23:34;;;;;;;;;;;;;;;21.75;62.54;100028.78;5139784;27;798;-41
2021/07/20 07:25:59;;;;;;;;;;;;;;;21.25;58.81;100032.78;5157752;27;945;-47
2021/07/20 07:28:25;;;;;;;;;;;;;;;20.62;56.47;100036.53;5158390;27;738;-42
2021/07/20 07:30:51;;;;;;;;;;;;;;;20.01;61.82;100030.69;5139605;27;782;-55
2021/07/20 07:33:16;;;;;;;;;;;;;;;19.94;61.49;100030.31;5158352;27;1890;-41
2021/07/20 07:35:42;;;;;;;;;;;;;;;20.15;59.33;100025.88;5139169;27;820;-55
2021/07/20 07:38:07;;;;;;;;;;;;;;;20.34;58.02;100033.13;5158229;27;812;-58
2021/07/20 07:40:33;;;;;;;;;;;;;;;20.51;56.53;100027.69;5139724;27;827;-57
2021/07/20 07:42:59;;;;;;;;;;;;;;;20.73;55.09;100033.50;5158081;27;996;-44
2021/07/20 07:45:24;;;;;;;;;;;;;;;21.01;54.08;100020.22;5139810;27;832;-57
2021/07/20 07:47:51;;;;;;;;;;;;;;;19.87;55.30;100019.72;5158459;27;747;-54
2021/07/20 07:50:17;;;;;;;;;;;;;;;19.79;56.68;100018.50;5139489;27;874;-57
2021/07/20 07:52:42;;;;;;;;;;;;;;;20.39;58.00;100024.72;5157850;27;1917;-56
2021/07/20 07:55:08;;;;;;;;;;;;;;;20.93;59.95;100023.78;5139493;27;744;-55
2021/07/20 07:57:33;;;;;;;;;;;;;;;21.23;61.69;100024.03;5158102;27;1016;-55
2021/07/20 07:59:59;;;;;;;;;;;;;;;21.09;64.33;100021.41;5158068;27;771;-40
2021/07/20 08:02:25;;;;;;;;;;;;;;;21.18;64.40;100020.28;5139018;27;860;-52
2021/07/20 08:04:51;;;;;;;;;;;;;;;20.82;62.33;100023.28;5157557;27;1025;-54
2021/07/20 08:07:16;;;;;;;;;;;;;;;20.45;59.98;100022.63;5139581;27;831;-54
2021/07/20 08:09:42;;;;;;;;;;;;;;;21.16;63.30;100016.19;5157905;27;771;-50
2021/07/20 08:12:07;;;;;;;;;;;;;;;21.76;64.95;100020.16;5138389;27;1910;-55
2021/07/20 08:14:33;;;;;;;;;;;;;;;22.13;65.42;100016.97;5139565;27;870;-46
2021/07/20 08:16:58;;;;;;;;;;;;;;;21.75;66.17;100018.50;5138715;27;970;-46
2021/07/20 08:19:26;;;;;;;;;;;;;;;21.09;66.07;100015.88;5121337;27;896;-54
2021/07/20 08:21:57;;;;;;;;;;;;;;;20.70;60.67;100014.81;5157816;27;818;-52
2021/07/20 08:24:23;;;;;;;;;;;;;;;19.68;59.43;100011.59;5160650;27;861;-53
2021/07/20 08:26:49;;;;;;;;;;;;;;;19.71;56.71;100019.22;5161021;27;953;-44
2021/07/20 08:29:16;;;;;;;;;;;;;;;19.64;53.54;100016.09;5161506;27;790;-42
2021/07/20 08:31:43;;;;;;;;;;;;;;;19.24;52.07;100018.69;5142934;27;1905;-53
2021/07/20 08:34:08;;;;;;;;;;;;;;;19.30;52.16;100018.25;5143240;27;794;-44
2021/07/20 08:36:35;;;;;;;;;;;;;;;20.04;55.41;100012.69;5142824;27;869;-45
2021/07/20 08:39:00;;;;;;;;;;;;;;;20.74;58.29;100019.34;5143287;27;774;-54
2021/07/20 08:41:38;;;;;;;;;;;;;;;21.02;60.38;100013.56;5142284;27;1317;-52
2021/07/20 08:44:22;;;;;;;;;;;;;;;21.05;62.47;100012.94;5161228;27;807;-51
2021/07/20 08:46:50;;;;;;;;;;;;;;;21.12;64.55;100006.94;5161691;27;775;-54
2021/07/20 08:49:31;;;;;;;;;;;;;;;20.92;62.20;100008.38;5142880;27;846;-51
2021/07/20 08:52:08;;;;;;;;;;;;;;;20.63;59.95;100007.75;5161167;27;1901;-54
2021/07/20 08:54:36;;;;;;;;;;;;;;;21.19;61.85;100012.78;5160978;27;802;-57
2021/07/20 08:57:02;;;;;;;;;;;;;;;21.74;63.76;100008.59;5160518;27;926;-49
2021/07/20 08:59:38;;;;;;;;;;;;;;;22.06;64.70;100006.41;5142373;27;1215;-42
2021/07/20 09:02:04;;;;;;;;;;;;;;;21.56;66.32;100005.03;5161155;27;830;-51
2021/07/20 09:04:37;;;;;;;;;;;;;;;21.07;68.54;100016.19;5160983;27;1069;-42
2021/07/20 09:07:06;;;;;;;;;;;;;;;20.46;62.09;100014.03;5160512;27;898;-45
2021/07/20 09:09:33;;;;;;;;;;;;;;;20.36;58.68;100006.03;5141473;27;909;-45
2021/07/20 09:12:21;;;;;;;;;;;;;;;20.12;58.76;99998.94;5142056;27;1980;-41
2021/07/20 09:15:06;;;;;;;;;;;;;;;19.71;55.99;100004.63;5142671;27;779;-55
2021/07/20 09:17:39;;;;;;;;;;;;;;;19.66;52.73;100003.63;5160950;27;821;-54
2021/07/20 09:20:08;;;;;;;;;;;;;;;19.63;52.70;100009.78;5160611;27;754;-53
2021/07/20 09:22:39;;;;;;;;;;;;;;;20.33;56.20;100009.44;5160567;27;803;-54
2021/07/20 09:25:06;;;;;;;;;;;;;;;21.00;58.35;100005.63;5142348;27;732;-55
2021/07/20 09:27:53;;;;;;;;;;;;;;;21.57;59.48;100011.38;5141565;27;1452;-53
2021/07/20 09:30:19;;;;;;;;;;;;;;;21.32;62.89;100008.22;5160338;27;815;-41
2021/07/20 09:33:04;;;;;;;;;;;;;;;21.35;64.19;100011.19;5160255;27;1905;-41
2021/07/20 09:35:32;;;;;;;;;;;;;;;20.99;61.17;100000.41;5159436;27;787;-41
2021/07/20 09:38:07;;;;;;;;;;;;;;;20.55;58.48;100010.47;5141015;27;804;-44
2021/07/20 09:40:48;;;;;;;;;;;;;;;21.33;61.59;100007.09;5160224;27;780;-46
2021/07/20 09:43:17;;;;;;;;;;;;;;;21.70;64.15;100010.41;5160285;27;727;-52
2021/07/20 09:45:44;;;;;;;;;;;;;;;22.01;65.10;100007.41;5140693;27;898;-55
2021/07/20 09:48:21;;;;;;;;;;;;;;;21.65;66.97;99997.53;5141926;27;906;-41
2021/07/20 09:50:47;;;;;;;;;;;;;;;21.41;65.82;100006.31;5141097;27;1069;-51
2021/07/20 09:53:42;;;;;;;;;;;;;;;20.65;60.98;100010.19;5139661;27;1922;-56
2021/07/20 09:56:07;;;;;;;;;;;;;;;19.83;59.29;99996.66;5120650;27;1300;-42
2021/07/20 09:58:36;;;;;;;;;;;;;;;19.64;58.76;99994.88;5138715;27;835;-55
2021/07/20 10:01:17;;;;;;;;;;;;;;;19.79;56.21;99990.94;5120755;27;1443;-51
2021/07/20 10:04:03;;;;;;;;;;;;;;;20.00;54.56;99993.16;5142471;27;1217;-56
2021/07/20 10:06:31;;;;;;;;;;;;;;;20.09;55.01;99995.97;5159199;27;1468;-41
2021/07/20 10:08:58;;;;;;;;;;;;;;;20.19;54.60;99987.44;5140409;27;814;-57
2021/07/20 10:11:32;;;;;;;;;;;;;;;20.08;54.88;99988.84;5140098;27;1991;-57
2021/07/20 10:13:59;;;;;;;;;;;;;;;20.24;56.18;99994.75;5141327;27;771;-60
2021/07/20 10:17:03;;;;;;;;;;;;;;;20.65;56.51;99993.59;5141618;27;843;-56
2021/07/20 10:19:47;;;;;;;;;;;;;;;20.91;57.04;99992.91;5075249;28;1145;-43
2021/07/20 10:22:13;;;;;;;;;;;;;;;20.85;58.05;99987.53;5075932;28;866;-55
2021/07/20 10:24:41;;;;;;;;;;;;;;;21.12;57.79;99988.38;5107534;27;976;-41
2021/07/20 10:27:11;;;;;;;;;;;;;;;20.88;59.20;99985.28;5139862;27;962;-56
2021/07/20 10:29:37;;;;;;;;;;;;;;;20.82;58.94;99976.31;5159379;27;549;-42
2021/07/20 10:32:06;;;;;;;;;;;;;;;20.02;58.65;99982.66;5159194;27;1962;-56
2021/07/20 10:34:31;;;;;;;;;;;;;;;20.54;61.69;99981.22;5140891;27;883;-56
2021/07/20 10:37:07;;;;;;;;;;;;;;;20.96;60.58;99976.19;5140685;27;1231;-56
2021/07/20 10:39:38;;;;;;;;;;;;;;;21.10;60.02;99995.38;5140687;27;751;-41
2021/07/20 10:42:07;;;;;;;;;;;;;;;21.14;59.85;99985.28;5140197;27;962;-54
2021/07/20 10:44:39;;;;;;;;;;;;;;;21.09;59.96;99983.50;5141321;27;763;-55
2021/07/20 10:47:05;;;;;;;;;;;;;;;20.73;59.58;99979.03;5158834;27;787;-46
2021/07/20 10:49:37;;;;;;;;;;;;;;;19.99;59.12;99983.25;5140336;27;790;-56
2021/07/20 10:52:04;;;;;;;;;;;;;;;20.73;61.38;99975.47;5158820;27;1952;-55
2021/07/20 10:54:31;;;;;;;;;;;;;;;20.85;61.63;99982.00;5140633;27;789;-41
2021/07/20 10:56:58;;;;;;;;;;;;;;;20.99;60.76;99978.28;5158749;27;968;-41
2021/07/20 10:59:42;;;;;;;;;;;;;;;20.93;60.72;99977.63;5158697;27;747;-54
2021/07/20 11:02:10;;;;;;;;;;;;;;;21.06;60.41;99969.53;5158602;27;862;-41
2021/07/20 11:04:47;;;;;;;;;;;;;;;21.02;59.76;99966.59;5140033;27;1043;-55
2021/07/20 11:07:19;;;;;;;;;;;;;;;19.93;59.31;99962.47;5158609;27;771;-52
2021/07/20 11:09:45;;;;;;;;;;;;;;;20.61;62.03;99971.34;5139194;27;941;-53
2021/07/20 11:12:10;;;;;;;;;;;;;;;20.88;61.70;99968.69;5121789;27;1990;-51
2021/07/20 11:14:39;;;;;;;;;;;;;;;21.23;60.20;99975.06;5158881;27;747;-53
2021/07/20 11:17:04;;;;;;;;;;;;;;;21.05;60.69;99968.69;5139838;27;751;-52
2021/07/20 11:19:30;;;;;;;;;;;;;;;21.16;60.49;99956.19;5158261;27;502;-50
2021/07/20 11:21:56;;;;;;;;;;;;;;;20.95;60.20;99963.50;5139847;27;767;-41
2021/07/20 11:24:21;;;;;;;;;;;;;;;20.20;59.10;99966.16;5139572;27;1108;-55
2021/07/20 11:26:47;;;;;;;;;;;;;;;20.48;61.24;99970.34;5139620;27;1001;-55
2021/07/20 11:29:12;;;;;;;;;;;;;;;20.97;61.72;99970.34;5138923;27;857;-54
2021/07/20 11:31:42;;;;;;;;;;;;;;;21.18;60.95;99958.63;5140054;27;1918;-41
2021/07/20 11:34:10;;;;;;;;;;;;;;;21.15;60.65;99968.41;5140296;27;759;-41
2021/07/20 11:36:39;;;;;;;;;;;;;;;21.02;61.05;99972.91;5140043;27;827;-41
2021/07/20 11:39:05;;;;;;;;;;;;;;;21.26;60.21;99963.34;5140187;27;787;-55
2021/07/20 11:41:49;;;;;;;;;;;;;;;20.47;59.76;99965.16;5157809;27;1012;-53
2021/07/20 11:44:16;;;;;;;;;;;;;;;20.61;61.27;99971.34;5158335;27;767;-52
2021/07/20 11:46:53;;;;;;;;;;;;;;;21.17;60.92;99966.13;5158233;27;830;-51
2021/07/20 11:49:30;;;;;;;;;;;;;;;21.05;61.10;99973.44;5157823;27;750;-53
2021/07/20 11:52:00;;;;;;;;;;;;;;;21.04;61.23;99969.84;5139092;27;1989;-41
2021/07/20 11:54:31;;;;;;;;;;;;;;;20.95;61.58;99963.50;5139761;27;815;-44
2021/07/20 11:57:12;;;;;;;;;;;;;;;20.93;59.70;99963.81;5157431;27;984;-47
2021/07/20 11:59:56;;;;;;;;;;;;;;;20.41;60.17;99966.41;5161307;27;786;-57
2021/07/20 12:02:54;;;;;;;;;;;;;;;21.17;60.85;99968.88;5162284;27;807;-49
2021/07/20 12:05:21;;;;;;;;;;;;;;;21.36;60.17;99956.66;5099045;27;1212;-48
2021/07/20 12:07:47;;;;;;;;;;;;;;;21.11;60.87;99963.81;5141389;27;759;-44
2021/07/20 12:10:31;;;;;;;;;;;;;;;21.19;60.50;99952.75;5141280;27;775;-52
2021/07/20 12:12:57;;;;;;;;;;;;;;;20.95;60.35;99960.72;5140921;27;1971;-52
2021/07/20 12:15:23;;;;;;;;;;;;;;;20.41;58.27;99961.72;5141643;27;743;-58
2021/07/20 12:17:49;;;;;;;;;;;;;;;20.88;61.29;99954.88;5141052;27;751;-42
2021/07/20 12:20:15;;;;;;;;;;;;;;;21.18;61.06;99953.09;5141622;27;770;-46
2021/07/20 12:22:41;;;;;;;;;;;;;;;21.46;59.94;99961.91;5141046;27;763;-54
2021/07/20 12:25:07;;;;;;;;;;;;;;;21.06;61.00;99959.28;5122810;27;1520;-43
2021/07/20 12:27:33;;;;;;;;;;;;;;;20.99;61.50;99953.41;5140654;27;946;-59
2021/07/20 12:29:59;;;;;;;;;;;;;;;20.56;60.33;99948.59;5140527;27;764;-45
2021/07/20 12:32:26;;;;;;;;;;;;;;;19.87;59.96;99949.94;5141245;27;1975;-54
2021/07/20 12:34:52;;;;;;;;;;;;;;;20.78;61.96;99942.19;5140796;27;814;-49
2021/07/20 12:37:18;;;;;;;;;;;;;;;21.23;61.27;99946.59;5140723;27;763;-55
2021/07/20 12:39:43;;;;;;;;;;;;;;;21.60;59.49;99938.78;5140881;27;790;-54
2021/07/20 12:42:08;;;;;;;;;;;;;;;21.25;60.49;99933.25;5121815;27;1007;-44
2021/07/20 12:44:35;;;;;;;;;;;;;;;21.30;60.49;99936.66;5140665;27;747;-53
2021/07/20 12:47:07;;;;;;;;;;;;;;;21.26;58.97;99940.41;5140724;27;847;-42
2021/07/20 12:49:33;;;;;;;;;;;;;;;20.20;59.55;99933.03;5121628;27;1097;-53
2021/07/20 12:51:59;;;;;;;;;;;;;;;21.16;60.75;99936.84;5140296;27;1913;-42
2021/07/20 12:54:34;;;;;;;;;;;;;;;21.37;60.61;99930.66;5140664;27;727;-54
2021/07/20 12:57:00;;;;;;;;;;;;;;;21.39;60.23;99933.09;5139989;27;981;-42
2021/07/20 12:59:26;;;;;;;;;;;;;;;21.26;60.64;99929.38;5140237;27;732;-45
2021/07/20 13:01:51;;;;;;;;;;;;;;;21.11;60.98;99936.19;5140536;27;799;-54
2021/07/20 13:04:17;;;;;;;;;;;;;;;20.61;59.29;99931.88;5126497;27;1150;-42
2021/07/20 13:06:43;;;;;;;;;;;;;;;20.20;60.02;99928.31;5138998;27;1316;-52
2021/07/20 13:09:09;;;;;;;;;;;;;;;20.92;61.65;99936.50;5138657;27;879;-42
2021/07/20 13:11:38;;;;;;;;;;;;;;;21.31;61.00;99937.50;5139283;27;1976;-53